DRZF weather

Diffa Airport
Diffa, Diffa Region, Niger

Public forecast

Using degrees Celsius for public forecast. Weather courtesy of forecast.io.

METAR (pilot weather report)

Report is more than 6 hours old.

Retrieved 2009/08/20 13:44 UTC (9 years ago):

DRZF 201344Z 22006KT 9999 TS SCT014 FEW043CB BKN300

TAF (pilot weather forecast)

Forecast is more than 12 hours old.

Closest forecast is Maiduguri International Airport, 94.9 nm (175.8 km) SSE. Retrieved 2019/02/12 00:21 UTC (5 days ago):

TAF DNMA 122130Z 1300/1406 04008KT 7000 NSC TEMPO 1305/1309 3000 HZ